createdAt,value
2022-12-13T00:00:21.002Z,97.70
2022-12-13T00:00:54.263Z,97.60
2022-12-13T00:01:27.256Z,97.60
2022-12-13T00:02:00.083Z,97.60
2022-12-13T00:02:31.947Z,97.40
2022-12-13T00:03:03.950Z,97.40
2022-12-13T00:03:36.782Z,97.50
2022-12-13T00:04:10.285Z,97.40
2022-12-13T00:04:43.143Z,97.40
2022-12-13T00:05:15.358Z,97.30
2022-12-13T00:05:47.414Z,97.20
2022-12-13T00:06:20.674Z,97.20
2022-12-13T00:06:53.902Z,97.30
2022-12-13T00:07:28.101Z,97.20
2022-12-13T00:08:00.875Z,97.20
2022-12-13T00:08:32.771Z,97.20
2022-12-13T00:09:08.249Z,97.10
2022-12-13T00:09:42.280Z,97.30
2022-12-13T00:10:14.120Z,97.40
2022-12-13T00:10:46.872Z,97.40
2022-12-13T00:11:18.747Z,97.60
2022-12-13T00:11:52.122Z,97.50
2022-12-13T00:12:23.929Z,97.50
2022-12-13T00:12:56.132Z,97.50
2022-12-13T00:13:29.422Z,97.60
2022-12-13T00:14:01.795Z,97.40
2022-12-13T00:14:34.659Z,97.50
2022-12-13T00:15:07.357Z,97.50
2022-12-13T00:15:39.152Z,97.50
2022-12-13T00:16:15.338Z,97.50
2022-12-13T00:16:48.464Z,97.30
2022-12-13T00:17:21.299Z,97.30
2022-12-13T00:17:53.125Z,97.40
2022-12-13T00:18:25.105Z,97.50
2022-12-13T00:19:00.210Z,97.50
2022-12-13T00:19:31.992Z,97.50
2022-12-13T00:20:05.537Z,97.70
2022-12-13T00:20:40.072Z,97.50
2022-12-13T00:21:14.541Z,97.50
2022-12-13T00:21:48.219Z,97.60
2022-12-13T00:22:20.028Z,97.70
2022-12-13T00:22:54.188Z,97.50
2022-12-13T00:23:26.045Z,97.50
2022-12-13T00:23:58.953Z,97.50
2022-12-13T00:24:31.737Z,97.40
2022-12-13T00:25:04.626Z,97.30
2022-12-13T00:25:36.416Z,97.20
2022-12-13T00:26:12.615Z,97.20
2022-12-13T00:26:44.477Z,97.10
2022-12-13T00:27:17.264Z,97.00
2022-12-13T00:27:49.097Z,97.10
2022-12-13T00:28:20.888Z,97.10
2022-12-13T00:28:54.116Z,97.10
2022-12-13T00:29:26.039Z,97.00
2022-12-13T00:29:58.824Z,97.00
2022-12-13T00:30:31.598Z,97.10
2022-12-13T00:31:26.958Z,97.20
2022-12-13T00:32:00.678Z,97.30
2022-12-13T00:32:33.005Z,97.40
2022-12-13T00:33:04.852Z,97.50
2022-12-13T00:33:39.564Z,97.60
2022-12-13T00:34:11.354Z,97.60
2022-12-13T00:34:44.132Z,97.60
2022-12-13T00:35:16.200Z,97.70
2022-12-13T00:35:48.119Z,97.80
2022-12-13T00:36:21.083Z,97.90
2022-12-13T00:36:53.709Z,98.10
2022-12-13T00:37:26.806Z,98.20
2022-12-13T00:37:59.981Z,98.30
2022-12-13T00:38:31.852Z,98.40
2022-12-13T00:39:04.872Z,98.50
2022-12-13T00:39:36.719Z,98.50
2022-12-13T00:40:11.190Z,98.50
2022-12-13T00:40:42.967Z,98.70
2022-12-13T00:41:16.985Z,98.70
2022-12-13T00:41:49.754Z,98.70
2022-12-13T00:42:21.639Z,98.70
2022-12-13T00:42:54.439Z,98.80
2022-12-13T00:43:26.278Z,98.90
2022-12-13T00:43:58.972Z,99.00
2022-12-13T00:44:32.147Z,99.10
2022-12-13T00:45:04.712Z,99.20
2022-12-13T00:45:38.084Z,99.20
2022-12-13T00:46:15.572Z,99.20
2022-12-13T00:46:47.561Z,99.30
2022-12-13T00:47:22.132Z,99.30
2022-12-13T00:47:53.936Z,99.30
2022-12-13T00:48:25.716Z,99.40
2022-12-13T00:49:00.959Z,99.30
2022-12-13T00:49:32.734Z,99.40
2022-12-13T00:50:06.628Z,99.50
2022-12-13T00:50:38.639Z,99.50
2022-12-13T00:51:11.788Z,99.60
2022-12-13T00:51:44.663Z,99.70
2022-12-13T00:52:16.505Z,99.60
2022-12-13T00:52:48.339Z,99.70
2022-12-13T00:53:21.477Z,99.40
2022-12-13T00:53:54.510Z,99.60
2022-12-13T00:54:26.305Z,99.60
2022-12-13T00:54:59.045Z,99.70
2022-12-13T00:55:30.988Z,99.70
2022-12-13T00:56:03.122Z,99.80
2022-12-13T00:56:38.264Z,99.70
2022-12-13T00:57:10.070Z,99.70
2022-12-13T00:57:41.902Z,99.60
2022-12-13T00:58:14.669Z,99.50
2022-12-13T00:58:51.618Z,99.50
2022-12-13T00:59:24.085Z,99.50
2022-12-13T00:59:56.866Z,99.50
2022-12-13T01:00:28.655Z,99.50
2022-12-13T01:01:04.579Z,99.50
2022-12-13T01:01:37.901Z,99.60
2022-12-13T01:02:09.752Z,99.60
2022-12-13T01:02:43.376Z,99.60
2022-12-13T01:03:20.386Z,99.80
2022-12-13T01:03:55.237Z,99.40
2022-12-13T01:04:27.115Z,99.30
2022-12-13T01:04:59.235Z,99.20
2022-12-13T01:06:11.138Z,99.30
2022-12-13T01:06:28.910Z,99.30
2022-12-13T01:07:02.073Z,99.30
2022-12-13T01:07:33.883Z,99.70
2022-12-13T01:08:05.731Z,99.80
2022-12-13T01:08:40.068Z,99.80
2022-12-13T01:09:17.205Z,99.80
2022-12-13T01:09:50.042Z,99.90
2022-12-13T01:10:22.147Z,99.90
2022-12-13T01:10:54.376Z,99.90
2022-12-13T01:11:27.413Z,99.90
2022-12-13T01:12:01.096Z,99.90
2022-12-13T01:12:34.043Z,99.90
2022-12-13T01:13:05.969Z,99.90
2022-12-13T01:13:38.163Z,99.80
2022-12-13T01:14:11.016Z,99.60
2022-12-13T01:14:43.108Z,99.50
2022-12-13T01:15:16.141Z,99.40
2022-12-13T01:15:48.457Z,99.40
2022-12-13T01:16:20.305Z,99.10
2022-12-13T01:16:55.612Z,99.10
2022-12-13T01:17:27.843Z,99.00
2022-12-13T01:17:59.636Z,98.80
2022-12-13T01:18:33.171Z,98.50
2022-12-13T01:19:04.996Z,98.70
2022-12-13T01:19:36.856Z,98.40
2022-12-13T01:20:11.443Z,98.50
2022-12-13T01:20:43.224Z,98.50
2022-12-13T01:21:16.929Z,98.60
2022-12-13T01:21:49.752Z,98.60
2022-12-13T01:22:21.573Z,98.60
2022-12-13T01:22:53.366Z,98.60
2022-12-13T01:23:26.350Z,98.70
2022-12-13T01:24:03.476Z,98.80
2022-12-13T01:24:36.260Z,98.60
2022-12-13T01:25:08.724Z,98.60
2022-12-13T01:25:40.540Z,98.60
2022-12-13T01:26:17.468Z,98.60
2022-12-13T01:26:49.288Z,98.40
2022-12-13T01:27:22.073Z,98.60
2022-12-13T01:27:53.923Z,98.60
2022-12-13T01:28:25.777Z,98.70
2022-12-13T01:28:59.240Z,98.70
2022-12-13T01:29:31.263Z,98.70
2022-12-13T01:30:04.384Z,98.70
2022-12-13T01:30:36.234Z,98.70
2022-12-13T01:31:10.436Z,98.80
2022-12-13T01:31:43.470Z,98.70
2022-12-13T01:32:15.289Z,98.60
2022-12-13T01:32:47.123Z,98.70
2022-12-13T01:33:18.931Z,98.60
2022-12-13T01:33:51.762Z,98.60
2022-12-13T01:34:26.451Z,98.60
2022-12-13T01:34:59.657Z,98.50
2022-12-13T01:35:34.481Z,98.40
2022-12-13T01:36:09.688Z,98.40
2022-12-13T01:36:44.358Z,98.50
2022-12-13T01:37:17.493Z,98.50
2022-12-13T01:37:49.289Z,98.40
2022-12-13T01:38:26.243Z,98.40
2022-12-13T01:38:59.400Z,98.40
2022-12-13T01:39:38.178Z,98.40
2022-12-13T01:40:16.138Z,98.40
2022-12-13T01:40:51.228Z,98.50
2022-12-13T01:41:27.321Z,98.60
2022-12-13T01:42:02.636Z,98.60
2022-12-13T01:42:37.085Z,98.70
2022-12-13T01:43:14.241Z,98.50
2022-12-13T01:44:01.102Z,98.40
2022-12-13T01:44:58.768Z,98.30
2022-12-13T01:45:30.782Z,98.40
2022-12-13T01:46:02.659Z,98.40
2022-12-13T01:46:36.932Z,98.60
2022-12-13T01:47:09.294Z,98.60
2022-12-13T01:47:45.753Z,98.70
2022-12-13T01:48:24.697Z,98.70
2022-12-13T01:49:01.337Z,98.70
2022-12-13T01:49:33.315Z,98.50
2022-12-13T01:50:10.612Z,98.50
2022-12-13T01:50:47.005Z,98.30
2022-12-13T01:51:23.427Z,98.30
2022-12-13T01:52:03.957Z,98.30
2022-12-13T01:52:36.443Z,98.30
2022-12-13T01:53:11.761Z,98.10
2022-12-13T01:53:47.799Z,98.40
2022-12-13T01:54:24.674Z,98.10
2022-12-13T01:55:09.251Z,98.10
2022-12-13T01:55:43.568Z,98.10
2022-12-13T01:56:22.066Z,98.10
2022-12-13T01:57:01.020Z,98.10
2022-12-13T01:57:34.856Z,98.10
2022-12-13T01:58:07.825Z,98.10
2022-12-13T01:58:40.744Z,98.10
2022-12-13T01:59:15.246Z,97.90
2022-12-13T01:59:49.023Z,97.90
2022-12-13T02:00:20.899Z,97.70
2022-12-13T02:00:53.872Z,97.50
2022-12-13T02:01:25.947Z,97.40
2022-12-13T02:02:00.880Z,97.50
2022-12-13T02:02:34.294Z,97.40
2022-12-13T02:03:06.181Z,97.40
2022-12-13T02:03:38.058Z,97.60
2022-12-13T02:04:10.987Z,97.20
2022-12-13T02:04:49.978Z,97.20
2022-12-13T02:05:26.956Z,97.20
2022-12-13T02:06:04.168Z,97.00
2022-12-13T02:06:38.754Z,97.20
2022-12-13T02:07:11.574Z,97.30
2022-12-13T02:07:46.085Z,97.40
2022-12-13T02:08:19.402Z,97.50
2022-12-13T02:08:51.286Z,97.50
2022-12-13T02:09:24.460Z,97.50
2022-12-13T02:10:00.157Z,97.60
2022-12-13T02:10:34.363Z,97.70
2022-12-13T02:11:07.646Z,97.80
2022-12-13T02:11:41.865Z,97.90
2022-12-13T02:12:14.779Z,97.80
2022-12-13T02:12:46.711Z,98.00
2022-12-13T02:13:19.571Z,97.80
2022-12-13T02:13:51.397Z,97.70
2022-12-13T02:14:23.198Z,98.10
2022-12-13T02:14:57.562Z,97.90
2022-12-13T02:15:39.438Z,97.80
2022-12-13T02:16:22.587Z,97.80
2022-12-13T02:17:04.090Z,97.80
2022-12-13T02:17:50.768Z,97.80
2022-12-13T02:18:44.064Z,97.70
2022-12-13T02:20:03.812Z,97.70
2022-12-13T02:21:11.393Z,97.70
2022-12-13T02:21:53.931Z,97.90
2022-12-13T02:22:48.990Z,98.20
2022-12-13T02:23:41.232Z,98.20
2022-12-13T02:24:40.646Z,98.50
2022-12-13T02:25:30.631Z,98.60
2022-12-13T02:26:29.099Z,98.90
2022-12-13T02:27:13.422Z,99.10
2022-12-13T02:28:30.614Z,99.30
2022-12-13T02:29:30.282Z,99.40
2022-12-13T02:30:27.909Z,99.60
2022-12-13T02:31:07.783Z,99.70
2022-12-13T02:31:48.781Z,99.70
2022-12-13T02:32:28.989Z,99.70
2022-12-13T02:33:29.427Z,99.60
2022-12-13T02:34:05.480Z,99.50
2022-12-13T02:34:40.388Z,99.40
2022-12-13T02:35:19.732Z,99.30
2022-12-13T02:36:04.637Z,99.30
2022-12-13T02:36:43.968Z,99.10
2022-12-13T02:37:23.960Z,99.10
2022-12-13T02:38:02.220Z,99.10
2022-12-13T02:38:41.568Z,99.00
2022-12-13T02:39:30.593Z,99.00
2022-12-13T02:40:09.831Z,99.10
2022-12-13T02:40:46.406Z,99.10
2022-12-13T02:41:26.311Z,99.10
2022-12-13T02:42:01.728Z,99.20
2022-12-13T02:42:37.900Z,99.20
2022-12-13T02:43:15.015Z,99.10
2022-12-13T02:43:50.464Z,99.10
2022-12-13T02:44:27.607Z,99.30
2022-12-13T02:45:07.156Z,99.40
2022-12-13T02:45:45.072Z,99.40
2022-12-13T02:46:22.237Z,99.20
2022-12-13T02:46:58.169Z,99.30
2022-12-13T02:47:31.791Z,99.60
2022-12-13T02:48:06.894Z,99.90
2022-12-13T02:48:42.325Z,99.90
2022-12-13T02:49:16.631Z,99.90
2022-12-13T02:49:52.005Z,99.90
2022-12-13T02:50:26.180Z,99.90
2022-12-13T02:51:01.073Z,99.90
2022-12-13T02:51:34.074Z,99.90
2022-12-13T02:52:08.425Z,99.90
2022-12-13T02:52:42.921Z,99.90
2022-12-13T02:53:16.161Z,99.90
2022-12-13T02:53:49.488Z,99.90
2022-12-13T02:54:21.268Z,99.90
2022-12-13T02:54:54.713Z,99.90
2022-12-13T02:55:28.667Z,99.90
2022-12-13T02:56:00.548Z,99.90
2022-12-13T02:56:32.717Z,99.90
2022-12-13T02:57:05.618Z,99.90
2022-12-13T02:57:39.834Z,99.90
2022-12-13T02:58:13.325Z,99.90
2022-12-13T02:58:50.072Z,99.90
2022-12-13T02:59:24.848Z,99.90
2022-12-13T02:59:57.810Z,99.90
2022-12-13T03:00:42.523Z,99.90
2022-12-13T03:01:31.126Z,99.90
2022-12-13T03:02:21.708Z,99.90
2022-12-13T03:03:18.559Z,99.80
2022-12-13T03:04:01.538Z,99.60
2022-12-13T03:05:03.215Z,99.50
2022-12-13T03:06:03.466Z,99.50
2022-12-13T03:06:45.124Z,99.60
2022-12-13T03:07:26.104Z,99.60
2022-12-13T03:08:11.774Z,99.60
2022-12-13T03:08:52.964Z,99.60
2022-12-13T03:09:41.664Z,99.40
2022-12-13T03:10:20.053Z,99.40
2022-12-13T03:11:03.764Z,99.30
2022-12-13T03:12:08.669Z,99.20
2022-12-13T03:13:04.633Z,99.00
2022-12-13T03:13:48.346Z,99.00
2022-12-13T03:14:22.554Z,99.00
2022-12-13T03:15:01.063Z,98.90
2022-12-13T03:15:39.599Z,98.60
2022-12-13T03:16:26.030Z,98.50
2022-12-13T03:17:01.724Z,98.60
2022-12-13T03:17:39.512Z,98.70
2022-12-13T03:18:16.361Z,98.90
2022-12-13T03:18:49.208Z,99.00
2022-12-13T03:19:23.243Z,99.10
2022-12-13T03:19:55.231Z,99.30
2022-12-13T03:20:29.203Z,99.30
2022-12-13T03:21:04.375Z,99.40
2022-12-13T03:21:43.932Z,99.30
2022-12-13T03:22:20.049Z,99.30
2022-12-13T03:22:52.254Z,99.30
2022-12-13T03:23:24.269Z,99.20
2022-12-13T03:23:57.118Z,99.20
2022-12-13T03:24:28.932Z,99.10
2022-12-13T03:25:00.850Z,99.10
2022-12-13T03:25:33.650Z,99.10
2022-12-13T03:26:09.147Z,99.10
2022-12-13T03:26:41.166Z,99.00
2022-12-13T03:27:14.455Z,99.00
2022-12-13T03:27:46.299Z,99.00
2022-12-13T03:28:18.150Z,98.90
2022-12-13T03:28:51.266Z,98.80
2022-12-13T03:29:24.784Z,98.90
2022-12-13T03:29:57.446Z,98.80
2022-12-13T03:30:30.502Z,98.80
2022-12-13T03:31:02.400Z,98.80
2022-12-13T03:31:36.621Z,98.60
2022-12-13T03:32:08.508Z,98.70
2022-12-13T03:32:40.330Z,98.60
2022-12-13T03:33:13.154Z,98.40
2022-12-13T03:33:45.388Z,98.40
2022-12-13T03:34:22.840Z,98.50
2022-12-13T03:35:00.495Z,98.50
2022-12-13T03:35:34.241Z,98.60
2022-12-13T03:36:18.811Z,98.60
2022-12-13T03:36:50.752Z,98.70
2022-12-13T03:37:22.613Z,98.70
2022-12-13T03:37:55.466Z,98.70
2022-12-13T03:38:27.583Z,98.70
2022-12-13T03:39:00.415Z,98.70
2022-12-13T03:39:32.288Z,98.70
2022-12-13T03:40:04.976Z,98.70
2022-12-13T03:40:38.196Z,98.50
2022-12-13T03:41:13.706Z,98.40
2022-12-13T03:41:45.702Z,98.50
2022-12-13T03:42:18.723Z,98.50
2022-12-13T03:42:50.529Z,98.50
2022-12-13T03:43:23.755Z,98.40
2022-12-13T03:43:55.653Z,98.40
2022-12-13T03:44:31.452Z,98.40
2022-12-13T03:45:03.949Z,98.40
2022-12-13T03:45:35.892Z,98.40
2022-12-13T03:46:09.434Z,98.50
2022-12-13T03:46:42.772Z,98.50
2022-12-13T03:47:15.853Z,98.40
2022-12-13T03:47:47.664Z,98.40
2022-12-13T03:48:21.674Z,98.40
2022-12-13T03:48:55.838Z,98.10
2022-12-13T03:49:27.645Z,98.10
2022-12-13T03:50:28.345Z,98.20
2022-12-13T03:51:01.056Z,98.20
2022-12-13T03:51:32.924Z,98.20
2022-12-13T03:52:04.792Z,98.20
2022-12-13T03:52:37.545Z,98.20
2022-12-13T03:53:09.367Z,98.10
2022-12-13T03:53:56.257Z,98.10
2022-12-13T03:54:28.061Z,98.00
2022-12-13T03:54:59.904Z,98.00
2022-12-13T03:55:32.750Z,97.90
2022-12-13T03:56:06.234Z,97.90
2022-12-13T03:56:39.042Z,97.90
2022-12-13T03:57:10.859Z,97.90
2022-12-13T03:57:42.645Z,97.90
2022-12-13T03:58:15.413Z,97.90
2022-12-13T03:58:47.231Z,97.90
2022-12-13T03:59:19.175Z,97.90
2022-12-13T03:59:51.958Z,97.80
2022-12-13T04:00:24.003Z,98.00
2022-12-13T04:00:55.833Z,98.10
2022-12-13T04:01:28.598Z,98.10
2022-12-13T04:02:01.861Z,98.10
2022-12-13T04:02:33.690Z,98.00
2022-12-13T04:03:06.747Z,98.00
2022-12-13T04:03:41.582Z,97.90
2022-12-13T04:04:14.362Z,97.80
2022-12-13T04:04:46.179Z,97.80
2022-12-13T04:05:18.504Z,97.80
2022-12-13T04:05:51.454Z,97.80
2022-12-13T04:06:25.438Z,97.90
2022-12-13T04:07:01.394Z,97.80
2022-12-13T04:07:34.441Z,97.60
2022-12-13T04:08:22.008Z,97.60
2022-12-13T04:08:55.501Z,97.50
2022-12-13T04:09:27.321Z,97.60
2022-12-13T04:09:59.111Z,97.60
2022-12-13T04:10:31.972Z,97.60
2022-12-13T04:11:24.603Z,97.60
2022-12-13T04:12:15.050Z,97.60
2022-12-13T04:13:05.573Z,97.50
2022-12-13T04:13:37.372Z,97.50
2022-12-13T04:14:10.140Z,97.40
2022-12-13T04:14:41.940Z,97.30
2022-12-13T04:15:14.028Z,97.20
2022-12-13T04:15:48.972Z,97.10
2022-12-13T04:16:21.599Z,97.00
2022-12-13T04:16:53.636Z,97.00
2022-12-13T04:17:27.795Z,97.00
2022-12-13T04:17:59.591Z,97.00
2022-12-13T04:18:31.377Z,96.90
2022-12-13T04:19:04.340Z,96.90
2022-12-13T04:19:36.240Z,96.80
2022-12-13T04:20:09.068Z,96.80
2022-12-13T04:20:41.852Z,96.80
2022-12-13T04:21:13.648Z,96.80
2022-12-13T04:21:45.465Z,96.80
2022-12-13T04:22:24.684Z,96.80
2022-12-13T04:22:56.794Z,96.80
2022-12-13T04:23:28.619Z,96.70
2022-12-13T04:24:01.543Z,96.70
2022-12-13T04:24:33.335Z,96.70
2022-12-13T04:25:05.772Z,96.70
2022-12-13T04:25:39.124Z,96.70
2022-12-13T04:26:11.004Z,96.70
2022-12-13T04:26:42.777Z,96.60
2022-12-13T04:27:15.597Z,96.60
2022-12-13T04:27:47.348Z,96.60
2022-12-13T04:28:22.230Z,96.60
2022-12-13T04:28:55.683Z,96.50
2022-12-13T04:29:27.617Z,96.50
2022-12-13T04:30:08.011Z,96.40
2022-12-13T04:30:40.779Z,96.30
2022-12-13T04:31:12.658Z,96.30
2022-12-13T04:31:45.493Z,96.40
2022-12-13T04:32:26.772Z,96.40
2022-12-13T04:33:00.581Z,96.40
2022-12-13T04:33:33.744Z,96.40
2022-12-13T04:34:05.519Z,96.40
2022-12-13T04:34:37.901Z,96.40
2022-12-13T04:35:10.753Z,96.40
2022-12-13T04:35:42.552Z,96.40
2022-12-13T04:36:31.149Z,96.50
2022-12-13T04:37:04.603Z,96.50
2022-12-13T04:37:37.354Z,96.40
2022-12-13T04:38:09.160Z,96.50
2022-12-13T04:38:41.009Z,96.50
2022-12-13T04:39:22.078Z,96.50
2022-12-13T04:40:00.573Z,96.50
2022-12-13T04:40:33.855Z,96.40
2022-12-13T04:41:07.591Z,96.40
2022-12-13T04:41:40.301Z,96.40
2022-12-13T04:42:13.477Z,96.40
2022-12-13T04:42:45.246Z,96.40
2022-12-13T04:43:17.055Z,96.70
2022-12-13T04:43:53.435Z,96.30
2022-12-13T04:44:28.143Z,96.20
2022-12-13T04:45:01.683Z,96.40
2022-12-13T04:45:34.513Z,96.20
2022-12-13T04:46:06.362Z,96.20
2022-12-13T04:46:38.390Z,96.20
2022-12-13T04:47:11.154Z,96.20
2022-12-13T04:47:43.445Z,96.20
2022-12-13T04:48:31.007Z,96.20
2022-12-13T04:49:03.510Z,96.20
2022-12-13T04:49:36.579Z,96.20
2022-12-13T04:50:09.154Z,96.20
2022-12-13T04:50:40.931Z,96.10
2022-12-13T04:51:13.951Z,96.20
2022-12-13T04:51:47.814Z,96.10
2022-12-13T04:52:22.202Z,96.30
2022-12-13T04:52:55.544Z,96.20
2022-12-13T04:53:27.418Z,96.30
2022-12-13T04:54:23.519Z,96.40
2022-12-13T04:54:55.471Z,96.40
2022-12-13T04:55:28.247Z,97.00
2022-12-13T04:56:02.156Z,96.80
2022-12-13T04:56:34.962Z,96.80
2022-12-13T04:57:07.907Z,96.90
2022-12-13T04:57:40.956Z,97.00
2022-12-13T04:58:12.712Z,97.10
2022-12-13T04:58:45.100Z,97.40
2022-12-13T04:59:18.027Z,97.10
2022-12-13T04:59:50.104Z,97.30
2022-12-13T05:00:22.313Z,97.20
2022-12-13T05:00:55.217Z,97.20
2022-12-13T05:01:27.066Z,97.20
2022-12-13T05:01:58.975Z,97.30
2022-12-13T05:02:31.793Z,97.30
2022-12-13T05:03:03.865Z,97.20
2022-12-13T05:03:38.848Z,97.20
2022-12-13T05:04:10.607Z,97.30
2022-12-13T05:04:43.425Z,97.20
2022-12-13T05:05:15.465Z,97.20
2022-12-13T05:05:48.447Z,97.10
2022-12-13T05:06:27.659Z,97.00
2022-12-13T05:07:00.630Z,97.00
2022-12-13T05:07:32.416Z,96.80
2022-12-13T05:08:04.938Z,96.90
2022-12-13T05:08:38.599Z,96.90
2022-12-13T05:09:11.435Z,97.00
2022-12-13T05:09:43.463Z,97.00
2022-12-13T05:10:32.188Z,97.30
2022-12-13T05:11:10.323Z,97.00
2022-12-13T05:11:45.488Z,96.90
2022-12-13T05:12:23.148Z,96.80
2022-12-13T05:12:56.345Z,96.80
2022-12-13T05:13:28.131Z,96.90
2022-12-13T05:14:00.915Z,96.90
2022-12-13T05:14:33.134Z,96.90
2022-12-13T05:15:06.740Z,96.80
2022-12-13T05:15:38.597Z,96.60
2022-12-13T05:16:11.713Z,96.60
2022-12-13T05:16:43.565Z,96.90
2022-12-13T05:17:15.383Z,96.60
2022-12-13T05:17:48.179Z,96.40
2022-12-13T05:18:19.975Z,96.40
2022-12-13T05:18:54.090Z,96.40
2022-12-13T05:19:30.988Z,96.40
2022-12-13T05:20:05.263Z,96.30
2022-12-13T05:20:37.093Z,96.30
2022-12-13T05:21:10.808Z,96.20
2022-12-13T05:21:43.588Z,96.30
2022-12-13T05:22:20.506Z,96.20
2022-12-13T05:22:55.014Z,96.20
2022-12-13T05:23:27.784Z,96.20
2022-12-13T05:23:59.565Z,96.20
2022-12-13T05:24:31.876Z,96.10
2022-12-13T05:25:04.980Z,96.20
2022-12-13T05:25:37.087Z,96.20
2022-12-13T05:26:09.277Z,96.00
2022-12-13T05:26:42.198Z,96.20
2022-12-13T05:27:25.611Z,96.20
2022-12-13T05:27:59.272Z,96.20
2022-12-13T05:28:31.637Z,96.30
2022-12-13T05:29:04.531Z,96.40
2022-12-13T05:29:36.392Z,96.30
2022-12-13T05:30:09.549Z,96.30
2022-12-13T05:30:43.142Z,96.40
2022-12-13T05:31:22.943Z,96.40
2022-12-13T05:31:56.820Z,96.30
2022-12-13T05:32:28.696Z,96.40
2022-12-13T05:33:00.510Z,96.30
2022-12-13T05:33:33.496Z,96.50
2022-12-13T05:34:06.636Z,96.40
2022-12-13T05:34:38.441Z,96.60
2022-12-13T05:35:11.253Z,96.30
2022-12-13T05:35:43.050Z,96.40
2022-12-13T05:36:15.852Z,96.50
2022-12-13T05:36:47.672Z,96.70
2022-12-13T05:37:19.471Z,96.80
2022-12-13T05:37:54.076Z,96.90
2022-12-13T05:38:26.776Z,97.00
2022-12-13T05:38:59.571Z,97.20
2022-12-13T05:39:31.443Z,97.30
2022-12-13T05:40:03.597Z,97.40
2022-12-13T05:40:36.384Z,97.50
2022-12-13T05:41:16.703Z,97.60
2022-12-13T05:41:49.718Z,97.70
2022-12-13T05:42:21.601Z,97.60
2022-12-13T05:43:01.693Z,97.60
2022-12-13T05:43:43.272Z,97.80
2022-12-13T05:44:15.448Z,97.80
2022-12-13T05:44:48.229Z,97.80
2022-12-13T05:45:20.577Z,97.90
2022-12-13T05:45:52.469Z,97.90
2022-12-13T05:46:25.296Z,97.90
2022-12-13T05:46:57.086Z,97.90
2022-12-13T05:47:28.896Z,97.90
2022-12-13T05:48:01.817Z,97.70
2022-12-13T05:48:33.652Z,97.70
2022-12-13T05:49:08.002Z,97.80
2022-12-13T05:49:39.845Z,97.90
2022-12-13T05:50:11.875Z,97.90
2022-12-13T05:50:44.643Z,98.00
2022-12-13T05:51:16.442Z,98.20
2022-12-13T05:51:49.235Z,99.90
2022-12-13T05:52:22.364Z,99.90
2022-12-13T05:53:04.829Z,99.90
2022-12-13T05:53:36.756Z,99.90
2022-12-13T05:54:09.517Z,99.90
2022-12-13T05:54:42.944Z,99.90
2022-12-13T05:55:15.582Z,99.90
2022-12-13T05:55:48.517Z,99.90
2022-12-13T05:56:22.596Z,99.90
2022-12-13T05:56:55.990Z,99.90
2022-12-13T05:57:27.866Z,99.90
2022-12-13T05:58:02.304Z,99.90
2022-12-13T05:58:36.317Z,99.90
2022-12-13T05:59:08.404Z,99.90
2022-12-13T05:59:41.195Z,99.90
2022-12-13T06:00:28.666Z,99.90
2022-12-13T06:01:07.968Z,99.90
2022-12-13T06:01:43.630Z,99.90
2022-12-13T06:02:21.419Z,99.90
2022-12-13T06:02:53.849Z,99.90
2022-12-13T06:03:26.831Z,99.90
2022-12-13T06:03:58.810Z,99.90
2022-12-13T06:04:33.102Z,99.90
2022-12-13T06:05:05.544Z,99.90
2022-12-13T06:05:38.581Z,99.90
2022-12-13T06:06:12.250Z,99.90
2022-12-13T06:06:45.056Z,99.90
2022-12-13T06:07:16.906Z,99.90
2022-12-13T06:07:53.601Z,99.90
2022-12-13T06:08:28.829Z,99.90
2022-12-13T06:09:01.724Z,99.90
2022-12-13T06:09:33.563Z,99.90
2022-12-13T06:10:13.015Z,99.90
2022-12-13T06:10:55.037Z,99.90
2022-12-13T06:11:44.602Z,99.90
2022-12-13T06:12:31.596Z,99.90
2022-12-13T06:13:21.876Z,99.90
2022-12-13T06:14:00.665Z,99.90
2022-12-13T06:14:33.153Z,99.90
2022-12-13T06:15:21.532Z,99.90
2022-12-13T06:16:01.713Z,99.90
2022-12-13T06:16:35.360Z,99.90
2022-12-13T06:17:07.202Z,99.90
2022-12-13T06:17:39.096Z,99.90
2022-12-13T06:18:11.872Z,99.90
2022-12-13T06:18:43.753Z,99.90
2022-12-13T06:19:16.499Z,99.90
2022-12-13T06:19:49.985Z,99.90
2022-12-13T06:20:23.364Z,99.90
2022-12-13T06:20:58.912Z,99.90
2022-12-13T06:21:41.629Z,99.90
2022-12-13T06:22:19.189Z,99.90
2022-12-13T06:22:51.268Z,99.70
2022-12-13T06:23:23.057Z,99.60
2022-12-13T06:23:56.032Z,99.70
2022-12-13T06:24:27.831Z,99.50
2022-12-13T06:25:01.493Z,99.50
2022-12-13T06:25:33.279Z,99.50
2022-12-13T06:26:08.103Z,99.50
2022-12-13T06:26:39.891Z,99.60
2022-12-13T06:27:11.871Z,99.60
2022-12-13T06:27:45.326Z,99.60
2022-12-13T06:28:17.488Z,99.50
2022-12-13T06:28:50.273Z,99.40
2022-12-13T06:29:25.557Z,99.30
2022-12-13T06:30:02.416Z,99.30
2022-12-13T06:30:34.727Z,99.20
2022-12-13T06:31:06.612Z,99.30
2022-12-13T06:31:39.407Z,99.50
2022-12-13T06:32:11.361Z,99.40
2022-12-13T06:32:44.168Z,99.50
2022-12-13T06:33:15.961Z,99.50
2022-12-13T06:33:56.425Z,99.90
2022-12-13T06:34:28.695Z,99.90
2022-12-13T06:35:28.818Z,99.90
2022-12-13T06:35:57.344Z,99.90
2022-12-13T06:36:30.504Z,99.90
2022-12-13T06:37:03.621Z,99.90
2022-12-13T06:37:35.391Z,99.90
2022-12-13T06:38:12.010Z,99.90
2022-12-13T06:38:44.085Z,99.90
2022-12-13T06:39:16.903Z,99.90
2022-12-13T06:39:48.663Z,99.90
2022-12-13T06:40:23.341Z,99.90
2022-12-13T06:40:55.276Z,99.90
2022-12-13T06:41:33.381Z,99.90
2022-12-13T06:42:07.963Z,99.90
2022-12-13T06:42:39.836Z,99.90
2022-12-13T06:43:12.614Z,99.90
2022-12-13T06:43:45.568Z,99.90
2022-12-13T06:44:18.343Z,99.90
2022-12-13T06:44:51.803Z,99.90
2022-12-13T06:45:29.141Z,99.90
2022-12-13T06:46:03.221Z,99.90
2022-12-13T06:46:36.223Z,99.90
2022-12-13T06:47:12.977Z,99.90
2022-12-13T06:48:05.406Z,99.90
2022-12-13T06:48:37.307Z,99.90
2022-12-13T06:49:09.223Z,99.90
2022-12-13T06:49:44.192Z,99.90
2022-12-13T06:50:17.780Z,99.90
2022-12-13T06:50:50.550Z,99.90
2022-12-13T06:51:23.228Z,99.90
2022-12-13T06:52:06.048Z,99.90
2022-12-13T06:52:37.898Z,99.90
2022-12-13T06:53:09.689Z,99.90
2022-12-13T06:53:42.687Z,99.90
2022-12-13T06:54:14.496Z,99.90
2022-12-13T06:54:47.256Z,99.90
2022-12-13T06:55:23.690Z,99.90
2022-12-13T06:55:57.275Z,99.90
2022-12-13T06:56:29.878Z,99.90
2022-12-13T06:57:01.988Z,99.90
2022-12-13T06:57:34.912Z,99.90
2022-12-13T06:58:06.704Z,99.90
2022-12-13T06:58:38.874Z,99.90
2022-12-13T06:59:11.677Z,99.90
2022-12-13T06:59:43.951Z,99.90
2022-12-13T07:00:22.444Z,99.70
2022-12-13T07:01:02.478Z,99.60
2022-12-13T07:01:36.999Z,99.40
2022-12-13T07:02:24.177Z,99.60
2022-12-13T07:02:57.786Z,99.70
2022-12-13T07:03:31.905Z,99.70
2022-12-13T07:04:03.822Z,99.70
2022-12-13T07:04:35.620Z,99.70
2022-12-13T07:05:10.401Z,99.60
2022-12-13T07:05:43.584Z,99.60
2022-12-13T07:06:19.020Z,99.30
2022-12-13T07:06:50.930Z,99.40
2022-12-13T07:07:24.564Z,99.20
2022-12-13T07:07:56.478Z,99.40
2022-12-13T07:08:29.302Z,99.40
2022-12-13T07:09:01.194Z,99.50
2022-12-13T07:09:34.496Z,99.60
2022-12-13T07:10:07.171Z,99.50
2022-12-13T07:10:55.183Z,99.50
2022-12-13T07:11:30.436Z,99.20
2022-12-13T07:12:05.448Z,99.30
2022-12-13T07:12:37.453Z,99.20
2022-12-13T07:13:10.245Z,99.40
2022-12-13T07:13:43.035Z,99.40
2022-12-13T07:14:15.816Z,99.50
2022-12-13T07:14:47.775Z,99.50
2022-12-13T07:15:19.602Z,99.60
2022-12-13T07:15:52.368Z,99.50
2022-12-13T07:16:32.924Z,99.40
2022-12-13T07:17:05.703Z,99.30
2022-12-13T07:17:37.504Z,99.20
2022-12-13T07:18:10.299Z,99.10
2022-12-13T07:18:42.128Z,98.70
2022-12-13T07:19:22.954Z,98.60
2022-12-13T07:19:56.365Z,98.70
2022-12-13T07:20:33.953Z,98.50
2022-12-13T07:21:08.117Z,98.60
2022-12-13T07:21:40.871Z,98.60
2022-12-13T07:22:12.675Z,98.60
2022-12-13T07:22:48.456Z,98.60
2022-12-13T07:23:24.629Z,98.60
2022-12-13T07:23:57.063Z,98.30
2022-12-13T07:24:28.838Z,98.20
2022-12-13T07:25:01.563Z,98.10
2022-12-13T07:25:33.382Z,97.90
2022-12-13T07:26:07.913Z,97.70
2022-12-13T07:26:39.711Z,97.70
2022-12-13T07:27:14.305Z,97.20
2022-12-13T07:27:46.064Z,97.60
2022-12-13T07:28:17.950Z,97.80
2022-12-13T07:28:55.081Z,97.90
2022-12-13T07:29:27.333Z,98.10
2022-12-13T07:30:00.220Z,98.20
2022-12-13T07:30:34.219Z,98.30
2022-12-13T07:31:15.461Z,98.40